Terminal Aerodrome Forecast
Issued by NWS Cleveland, OH

Home | Current Version | Previous Version | Graphics & Text | Print | Product List | Glossary Off
Versions: 1 2 3 4 5 6 7 8 9 10 11 12 13 14

473
FTUS41 KCLE 231125
TAFMFD
TAF
KMFD 231125Z 2312/2412 15010KT P6SM OVC080
     FM231500 15012G20KT P6SM VCSH OVC060
     FM231700 15015G25KT 6SM -SHRA OVC040
     FM231900 17018G28KT 5SM RA BR OVC015
     FM240200 20015G25KT 6SM -RA OVC015
     FM240400 23015G25KT P6SM -SHRA OVC015
     FM240800 23012G20KT P6SM OVC025=

USA.gov is the U.S. government's official web portal to all federal, state and local government web resources and services.